createdAt,value
2022-11-07T00:02:12.065Z,7.80
2022-11-07T00:04:39.521Z,7.80
2022-11-07T00:07:07.310Z,7.80
2022-11-07T00:09:35.496Z,7.80
2022-11-07T00:12:02.490Z,7.70
2022-11-07T00:14:29.220Z,7.80
2022-11-07T00:16:56.103Z,7.80
2022-11-07T00:19:22.817Z,7.80
2022-11-07T00:21:50.293Z,7.80
2022-11-07T00:24:18.166Z,7.80
2022-11-07T00:26:47.119Z,7.70
2022-11-07T00:29:14.691Z,7.80
2022-11-07T00:31:41.630Z,7.80
2022-11-07T00:34:08.428Z,7.80
2022-11-07T00:36:35.192Z,7.80
2022-11-07T00:39:01.944Z,7.80
2022-11-07T00:41:28.727Z,7.80
2022-11-07T00:43:56.844Z,7.80
2022-11-07T00:46:23.884Z,7.80
2022-11-07T00:48:50.962Z,7.80
2022-11-07T00:51:19.729Z,7.80
2022-11-07T00:53:46.894Z,7.80
2022-11-07T00:56:15.451Z,7.80
2022-11-07T00:58:42.374Z,7.80
2022-11-07T01:01:12.477Z,7.80
2022-11-07T01:03:39.807Z,7.80
2022-11-07T01:06:07.027Z,7.80
2022-11-07T01:08:33.766Z,7.80
2022-11-07T01:11:03.815Z,7.80
2022-11-07T01:13:30.545Z,7.80
2022-11-07T01:15:57.302Z,7.80
2022-11-07T01:18:25.402Z,7.80
2022-11-07T01:20:52.128Z,7.80
2022-11-07T01:23:19.192Z,7.80
2022-11-07T01:25:45.941Z,7.80
2022-11-07T01:28:12.689Z,7.80
2022-11-07T01:30:40.565Z,7.80
2022-11-07T01:33:07.411Z,7.80
2022-11-07T01:35:36.351Z,7.80
2022-11-07T01:38:03.138Z,7.80
2022-11-07T01:40:30.766Z,7.80
2022-11-07T01:42:57.574Z,7.90
2022-11-07T01:45:26.877Z,7.90
2022-11-07T01:47:56.253Z,7.90
2022-11-07T01:50:24.898Z,7.90
2022-11-07T01:52:55.078Z,7.90
2022-11-07T01:55:25.976Z,7.90
2022-11-07T01:57:55.656Z,7.90
2022-11-07T02:00:24.477Z,7.90
2022-11-07T02:02:55.294Z,7.90
2022-11-07T02:05:28.598Z,7.90
2022-11-07T02:07:57.475Z,7.90
2022-11-07T02:10:25.019Z,7.90
2022-11-07T02:12:52.113Z,7.90
2022-11-07T02:15:19.307Z,7.90
2022-11-07T02:17:46.089Z,7.90
2022-11-07T02:20:13.524Z,7.90
2022-11-07T02:22:47.603Z,7.90
2022-11-07T02:25:16.430Z,7.90
2022-11-07T02:27:45.327Z,7.90
2022-11-07T02:30:15.213Z,7.90
2022-11-07T02:32:42.012Z,7.90
2022-11-07T02:35:33.232Z,7.90
2022-11-07T02:38:00.307Z,7.90
2022-11-07T02:40:31.529Z,7.90
2022-11-07T02:42:59.289Z,7.90
2022-11-07T02:45:29.401Z,7.90
2022-11-07T02:47:56.348Z,7.90
2022-11-07T02:50:23.316Z,7.90
2022-11-07T02:52:50.191Z,7.90
2022-11-07T02:55:17.574Z,7.90
2022-11-07T02:57:45.683Z,7.90
2022-11-07T03:00:14.511Z,7.90
2022-11-07T03:02:41.555Z,7.90
2022-11-07T03:05:08.792Z,7.90
2022-11-07T03:07:35.533Z,7.90
2022-11-07T03:10:02.462Z,7.90
2022-11-07T03:12:29.163Z,7.80
2022-11-07T03:14:57.338Z,7.80
2022-11-07T03:17:24.171Z,7.80
2022-11-07T03:19:50.904Z,7.80
2022-11-07T03:22:17.680Z,7.80
2022-11-07T03:24:44.659Z,7.80
2022-11-07T03:27:11.374Z,7.80
2022-11-07T03:29:38.089Z,7.80
2022-11-07T03:32:06.314Z,7.80
2022-11-07T03:34:33.061Z,7.70
2022-11-07T03:36:59.781Z,7.80
2022-11-07T03:39:26.500Z,7.70
2022-11-07T03:41:53.251Z,7.70
2022-11-07T03:44:19.974Z,7.70
2022-11-07T03:46:46.812Z,7.70
2022-11-07T03:49:14.908Z,7.70
2022-11-07T03:51:41.653Z,7.70
2022-11-07T03:54:08.375Z,7.60
2022-11-07T03:56:35.107Z,7.60
2022-11-07T03:59:01.824Z,7.60
2022-11-07T04:01:28.717Z,7.60
2022-11-07T04:03:56.485Z,7.60
2022-11-07T04:06:24.726Z,7.60
2022-11-07T04:08:51.455Z,7.60
2022-11-07T04:11:18.175Z,7.60
2022-11-07T04:13:44.900Z,7.60
2022-11-07T04:16:17.275Z,7.60
2022-11-07T04:18:44.395Z,7.50
2022-11-07T04:21:11.164Z,7.50
2022-11-07T04:23:39.251Z,7.50
2022-11-07T04:26:06.148Z,7.50
2022-11-07T04:28:32.890Z,7.40
2022-11-07T04:30:59.595Z,7.40
2022-11-07T04:33:26.509Z,7.40
2022-11-07T04:35:53.251Z,7.40
2022-11-07T04:38:20.024Z,7.40
2022-11-07T04:40:54.219Z,7.40
2022-11-07T04:43:21.178Z,7.40
2022-11-07T04:45:47.878Z,7.40
2022-11-07T04:48:14.614Z,7.40
2022-11-07T04:50:42.183Z,7.40
2022-11-07T04:53:11.992Z,7.40
2022-11-07T04:55:38.878Z,7.40
2022-11-07T04:58:06.981Z,7.40
2022-11-07T05:00:34.059Z,7.40
2022-11-07T05:03:00.851Z,7.30
2022-11-07T05:05:27.909Z,7.30
2022-11-07T05:07:54.635Z,7.30
2022-11-07T05:10:24.770Z,7.30
2022-11-07T05:12:51.889Z,7.30
2022-11-07T05:15:20.257Z,7.40
2022-11-07T05:17:47.284Z,7.40
2022-11-07T05:20:26.639Z,7.40
2022-11-07T05:22:56.289Z,7.50
2022-11-07T05:25:23.286Z,7.50
2022-11-07T05:27:54.991Z,7.40
2022-11-07T05:30:23.064Z,7.50
2022-11-07T05:32:49.791Z,7.50
2022-11-07T05:35:16.677Z,7.40
2022-11-07T05:37:43.423Z,7.50
2022-11-07T05:40:11.349Z,7.50
2022-11-07T05:42:38.087Z,7.50
2022-11-07T05:45:06.067Z,7.50
2022-11-07T05:47:34.163Z,7.50
2022-11-07T05:50:00.878Z,7.50
2022-11-07T05:52:27.614Z,7.50
2022-11-07T05:54:54.520Z,7.50
2022-11-07T05:57:21.234Z,7.50
2022-11-07T05:59:47.952Z,7.50
2022-11-07T06:02:14.791Z,7.50
2022-11-07T06:04:42.930Z,7.50
2022-11-07T06:07:09.764Z,7.50
2022-11-07T06:09:36.500Z,7.40
2022-11-07T06:12:03.474Z,7.40
2022-11-07T06:14:30.199Z,7.40
2022-11-07T06:16:56.921Z,7.40
2022-11-07T06:19:23.653Z,7.30
2022-11-07T06:21:51.738Z,7.30
2022-11-07T06:24:18.503Z,7.30
2022-11-07T06:26:45.228Z,7.30
2022-11-07T06:29:11.941Z,7.30
2022-11-07T06:31:38.676Z,7.30
2022-11-07T06:34:05.413Z,7.30
2022-11-07T06:36:32.152Z,7.30
2022-11-07T06:39:00.266Z,7.20
2022-11-07T06:41:27.045Z,7.30
2022-11-07T06:43:53.774Z,7.30
2022-11-07T06:46:20.532Z,7.20
2022-11-07T06:48:47.265Z,7.30
2022-11-07T06:51:14.024Z,7.30
2022-11-07T06:53:41.916Z,7.30
2022-11-07T06:56:14.036Z,7.30
2022-11-07T06:58:40.844Z,7.40
2022-11-07T07:01:08.790Z,7.40
2022-11-07T07:03:35.769Z,7.40
2022-11-07T07:06:04.139Z,7.40
2022-11-07T07:08:31.658Z,7.40
2022-11-07T07:11:02.626Z,7.40
2022-11-07T07:13:30.927Z,7.50
2022-11-07T07:15:58.828Z,7.40
2022-11-07T07:18:26.217Z,7.50
2022-11-07T07:20:55.528Z,7.50
2022-11-07T07:23:22.375Z,7.50
2022-11-07T07:25:49.437Z,7.50
2022-11-07T07:28:16.176Z,7.50
2022-11-07T07:30:50.329Z,7.50
2022-11-07T07:33:18.862Z,7.60
2022-11-07T07:35:46.100Z,7.60
2022-11-07T07:38:13.874Z,7.60
2022-11-07T07:40:40.607Z,7.60
2022-11-07T07:43:07.308Z,7.60
2022-11-07T07:45:34.050Z,7.60
2022-11-07T07:48:02.201Z,7.60
2022-11-07T07:50:29.319Z,7.60
2022-11-07T07:52:56.464Z,7.60
2022-11-07T07:55:23.235Z,7.70
2022-11-07T07:57:49.955Z,7.70
2022-11-07T08:00:17.154Z,7.70
2022-11-07T08:02:44.017Z,7.70
2022-11-07T08:05:13.219Z,7.70
2022-11-07T08:07:47.496Z,7.70
2022-11-07T08:10:40.436Z,7.70
2022-11-07T08:13:01.350Z,7.70
2022-11-07T08:15:28.111Z,7.80
2022-11-07T08:17:54.826Z,7.80
2022-11-07T08:20:22.932Z,7.80
2022-11-07T08:22:49.701Z,7.90
2022-11-07T08:25:16.552Z,7.90
2022-11-07T08:27:43.298Z,7.90
2022-11-07T08:30:17.611Z,7.90
2022-11-07T08:32:44.756Z,7.90
2022-11-07T08:35:11.581Z,8.00
2022-11-07T08:37:39.726Z,7.90
2022-11-07T08:40:07.834Z,8.00
2022-11-07T08:42:34.560Z,8.00
2022-11-07T08:45:01.333Z,8.00
2022-11-07T08:47:28.108Z,8.10
2022-11-07T08:49:54.841Z,8.10
2022-11-07T08:52:21.604Z,8.10
2022-11-07T08:54:49.672Z,8.10
2022-11-07T08:57:16.489Z,8.10
2022-11-07T08:59:43.220Z,8.10
2022-11-07T09:04:58.336Z,8.20
2022-11-07T09:07:25.056Z,8.10
2022-11-07T09:09:53.128Z,8.20
2022-11-07T09:12:19.862Z,8.20
2022-11-07T09:14:46.584Z,8.20
2022-11-07T09:17:13.372Z,8.20
2022-11-07T09:19:40.086Z,8.30
2022-11-07T09:22:06.973Z,8.30
2022-11-07T09:24:33.673Z,8.30
2022-11-07T09:27:01.774Z,8.30
2022-11-07T09:29:28.503Z,8.30
2022-11-07T09:31:55.238Z,8.40
2022-11-07T09:34:21.951Z,8.40
2022-11-07T09:36:48.802Z,8.40
2022-11-07T09:39:15.504Z,8.40
2022-11-07T09:41:51.921Z,8.50
2022-11-07T09:44:37.687Z,8.50
2022-11-07T09:47:13.387Z,8.50
2022-11-07T09:49:44.902Z,8.50
2022-11-07T09:52:18.135Z,8.50
2022-11-07T09:54:48.456Z,8.60
2022-11-07T09:57:17.171Z,8.60
2022-11-07T09:59:49.111Z,8.60
2022-11-07T10:02:18.117Z,8.60
2022-11-07T10:04:46.472Z,8.60
2022-11-07T10:07:24.946Z,8.70
2022-11-07T10:10:01.198Z,8.70
2022-11-07T10:12:47.385Z,8.70
2022-11-07T10:15:24.823Z,8.70
2022-11-07T10:18:02.337Z,8.70
2022-11-07T10:20:45.228Z,8.70
2022-11-07T10:23:31.133Z,8.80
2022-11-07T10:26:05.165Z,8.80
2022-11-07T10:28:32.341Z,8.80
2022-11-07T10:31:04.927Z,8.80
2022-11-07T10:33:39.426Z,8.90
2022-11-07T10:36:14.749Z,8.90
2022-11-07T10:38:42.601Z,8.90
2022-11-07T10:41:15.190Z,8.90
2022-11-07T10:43:45.365Z,9.00
2022-11-07T10:46:17.235Z,9.00
2022-11-07T10:48:51.413Z,9.00
2022-11-07T10:51:17.988Z,9.10
2022-11-07T10:53:45.163Z,9.10
2022-11-07T10:56:13.256Z,9.10
2022-11-07T10:58:44.929Z,9.10
2022-11-07T11:01:13.355Z,9.10
2022-11-07T11:03:44.834Z,9.20
2022-11-07T11:06:23.041Z,9.20
2022-11-07T11:08:51.425Z,9.20
2022-11-07T11:11:27.198Z,9.20
2022-11-07T11:14:02.536Z,9.20
2022-11-07T11:16:33.574Z,9.20
2022-11-07T11:19:01.890Z,9.20
2022-11-07T11:21:39.381Z,9.30
2022-11-07T11:24:13.577Z,9.30
2022-11-07T11:26:41.600Z,9.30
2022-11-07T11:29:14.562Z,9.30
2022-11-07T11:31:45.901Z,9.40
2022-11-07T11:34:19.070Z,9.40
2022-11-07T11:36:51.723Z,9.40
2022-11-07T11:39:26.017Z,9.40
2022-11-07T11:41:56.349Z,9.50
2022-11-07T11:44:32.090Z,9.50
2022-11-07T11:47:09.656Z,9.50
2022-11-07T11:49:43.127Z,9.50
2022-11-07T11:52:15.510Z,9.60
2022-11-07T11:54:42.972Z,9.60
2022-11-07T11:57:15.078Z,9.60
2022-11-07T12:00:01.425Z,9.60
2022-11-07T12:02:57.290Z,9.60
2022-11-07T12:05:39.653Z,9.70
2022-11-07T12:08:20.823Z,9.70
2022-11-07T12:10:58.293Z,9.70
2022-11-07T12:13:34.602Z,9.70
2022-11-07T12:16:09.942Z,9.70
2022-11-07T12:18:45.776Z,9.80
2022-11-07T12:21:26.289Z,9.80
2022-11-07T12:24:10.797Z,9.80
2022-11-07T12:26:41.188Z,9.80
2022-11-07T12:29:17.575Z,9.90
2022-11-07T12:31:58.972Z,9.90
2022-11-07T12:34:41.244Z,9.90
2022-11-07T12:37:44.990Z,9.90
2022-11-07T12:40:27.010Z,9.90
2022-11-07T12:43:07.481Z,9.90
2022-11-07T12:45:48.466Z,9.90
2022-11-07T12:48:43.289Z,10.00
2022-11-07T12:51:15.420Z,10.00
2022-11-07T12:53:52.775Z,10.00
2022-11-07T12:56:25.289Z,10.00
2022-11-07T12:58:53.279Z,10.00
2022-11-07T13:01:26.671Z,10.00
2022-11-07T13:03:59.524Z,10.00
2022-11-07T13:06:35.315Z,10.00
2022-11-07T13:09:13.531Z,10.10
2022-11-07T13:11:47.613Z,10.10
2022-11-07T13:14:25.646Z,10.10
2022-11-07T13:17:03.397Z,10.10
2022-11-07T13:19:33.035Z,10.10
2022-11-07T13:22:03.200Z,10.10
2022-11-07T13:24:30.768Z,10.10
2022-11-07T13:26:57.796Z,10.10
2022-11-07T13:29:33.093Z,10.20
2022-11-07T13:32:08.040Z,10.20
2022-11-07T13:34:49.668Z,10.20
2022-11-07T13:37:21.494Z,10.20
2022-11-07T13:39:53.137Z,10.20
2022-11-07T13:42:23.866Z,10.20
2022-11-07T13:44:54.006Z,10.20
2022-11-07T13:47:30.915Z,10.20
2022-11-07T13:50:04.072Z,10.30
2022-11-07T13:52:40.481Z,10.30
2022-11-07T13:55:15.469Z,10.30
2022-11-07T13:57:45.467Z,10.30
2022-11-07T14:00:15.704Z,10.30
2022-11-07T14:02:51.031Z,10.30
2022-11-07T14:05:18.469Z,10.30
2022-11-07T14:07:50.916Z,10.30
2022-11-07T14:10:24.653Z,10.30
2022-11-07T14:12:54.786Z,10.30
2022-11-07T14:15:21.638Z,10.40
2022-11-07T14:17:48.520Z,10.40
2022-11-07T14:20:18.413Z,10.40
2022-11-07T14:22:51.782Z,10.40
2022-11-07T14:25:23.829Z,10.40
2022-11-07T14:27:50.609Z,10.40
2022-11-07T14:30:19.180Z,10.40
2022-11-07T14:32:51.212Z,10.40
2022-11-07T14:35:20.673Z,10.40
2022-11-07T14:37:47.790Z,10.40
2022-11-07T14:40:16.123Z,10.40
2022-11-07T14:42:43.972Z,10.40
2022-11-07T14:45:14.326Z,10.40
2022-11-07T14:47:41.368Z,10.40
2022-11-07T14:50:13.686Z,10.50
2022-11-07T14:52:44.901Z,10.40
2022-11-07T14:55:17.194Z,10.40
2022-11-07T14:57:44.616Z,10.40
2022-11-07T15:00:14.836Z,10.40
2022-11-07T15:02:41.920Z,10.50
2022-11-07T15:05:21.641Z,10.40
2022-11-07T15:07:49.485Z,10.40
2022-11-07T15:10:30.243Z,10.40
2022-11-07T15:12:59.108Z,10.40
2022-11-07T15:15:29.459Z,10.40
2022-11-07T15:17:58.385Z,10.40
2022-11-07T15:20:34.068Z,10.40
2022-11-07T15:23:03.013Z,10.40
2022-11-07T15:25:36.264Z,10.40
2022-11-07T15:28:20.067Z,10.40
2022-11-07T15:30:48.234Z,10.40
2022-11-07T15:33:16.990Z,10.40
2022-11-07T15:35:45.361Z,10.40
2022-11-07T15:38:16.966Z,10.40
2022-11-07T15:40:45.897Z,10.40
2022-11-07T15:43:12.891Z,10.40
2022-11-07T15:45:39.901Z,10.40
2022-11-07T15:48:08.256Z,10.40
2022-11-07T15:50:41.505Z,10.40
2022-11-07T15:53:14.601Z,10.40
2022-11-07T15:55:41.391Z,10.40
2022-11-07T15:58:14.486Z,10.40
2022-11-07T16:00:41.875Z,10.40
2022-11-07T16:03:14.009Z,10.40
2022-11-07T16:05:41.256Z,10.40
2022-11-07T16:08:13.049Z,10.40
2022-11-07T16:10:43.219Z,10.40
2022-11-07T16:13:11.330Z,10.40
2022-11-07T16:15:39.597Z,10.40
2022-11-07T16:18:12.149Z,10.30
2022-11-07T16:20:38.883Z,10.40
2022-11-07T16:23:05.583Z,10.30
2022-11-07T16:25:32.346Z,10.30
2022-11-07T16:28:00.011Z,10.30
2022-11-07T16:30:28.123Z,10.30
2022-11-07T16:32:54.836Z,10.30
2022-11-07T16:35:22.306Z,10.30
2022-11-07T16:37:49.039Z,10.20
2022-11-07T16:40:18.333Z,10.20
2022-11-07T16:42:45.587Z,10.20
2022-11-07T16:45:15.648Z,10.20
2022-11-07T16:47:44.054Z,10.20
2022-11-07T16:50:13.433Z,10.20
2022-11-07T16:52:40.140Z,10.20
2022-11-07T16:55:10.610Z,10.20
2022-11-07T16:57:37.344Z,10.20
2022-11-07T17:00:04.965Z,10.20
2022-11-07T17:02:31.821Z,10.20
2022-11-07T17:04:59.961Z,10.10
2022-11-07T17:07:26.671Z,10.10
2022-11-07T17:09:53.401Z,10.10
2022-11-07T17:12:21.931Z,10.10
2022-11-07T17:14:48.989Z,10.00
2022-11-07T17:17:17.575Z,10.00
2022-11-07T17:19:44.335Z,10.00
2022-11-07T17:22:13.071Z,10.00
2022-11-07T17:24:40.216Z,10.00
2022-11-07T17:27:18.942Z,10.00
2022-11-07T17:29:45.657Z,9.90
2022-11-07T17:32:12.363Z,10.00
2022-11-07T17:34:39.206Z,9.90
2022-11-07T17:37:06.011Z,9.90
2022-11-07T17:39:34.075Z,9.90
2022-11-07T17:42:00.807Z,9.90
2022-11-07T17:44:27.536Z,9.90
2022-11-07T17:46:54.272Z,9.80
2022-11-07T17:49:21.036Z,9.90
2022-11-07T17:51:47.761Z,9.80
2022-11-07T17:54:15.737Z,9.80
2022-11-07T17:56:43.841Z,9.80
2022-11-07T17:59:12.841Z,9.80
2022-11-07T18:01:40.183Z,9.80
2022-11-07T18:04:08.487Z,9.80
2022-11-07T18:06:36.510Z,9.80
2022-11-07T18:09:04.415Z,9.70
2022-11-07T18:11:31.264Z,9.70
2022-11-07T18:14:00.028Z,9.70
2022-11-07T18:16:30.560Z,9.60
2022-11-07T18:18:57.619Z,9.70
2022-11-07T18:21:25.375Z,9.60
2022-11-07T18:23:52.534Z,9.60
2022-11-07T18:26:21.153Z,9.60
2022-11-07T18:28:48.849Z,9.60
2022-11-07T18:31:20.213Z,9.60
2022-11-07T18:33:47.504Z,9.50
2022-11-07T18:36:17.825Z,9.50
2022-11-07T18:38:44.935Z,9.50
2022-11-07T18:41:13.702Z,9.50
2022-11-07T18:43:40.695Z,9.50
2022-11-07T18:46:09.062Z,9.50
2022-11-07T18:48:37.685Z,9.50
2022-11-07T18:51:08.878Z,9.40
2022-11-07T18:53:35.610Z,9.40
2022-11-07T18:56:04.705Z,9.40
2022-11-07T18:58:33.030Z,9.40
2022-11-07T19:01:02.491Z,9.40
2022-11-07T19:03:29.403Z,9.30
2022-11-07T19:05:57.843Z,9.30
2022-11-07T19:08:24.582Z,9.30
2022-11-07T19:10:51.334Z,9.30
2022-11-07T19:13:18.074Z,9.30
2022-11-07T19:15:44.803Z,9.30
2022-11-07T19:18:11.544Z,9.30
2022-11-07T19:20:39.044Z,9.20
2022-11-07T19:23:07.113Z,9.20
2022-11-07T19:25:33.851Z,9.20
2022-11-07T19:28:00.551Z,9.20
2022-11-07T19:30:27.283Z,9.20
2022-11-07T19:32:53.998Z,9.20
2022-11-07T19:35:20.747Z,9.20
2022-11-07T19:37:47.501Z,9.10
2022-11-07T19:40:15.689Z,9.10
2022-11-07T19:42:42.417Z,9.10
2022-11-07T19:45:09.659Z,9.10
2022-11-07T19:47:36.389Z,9.10
2022-11-07T19:50:03.534Z,9.00
2022-11-07T19:52:30.276Z,9.00
2022-11-07T19:54:57.010Z,9.00
2022-11-07T19:57:25.157Z,9.00
2022-11-07T19:59:52.560Z,9.00
2022-11-07T20:02:32.360Z,8.90
2022-11-07T20:05:00.645Z,8.90
2022-11-07T20:07:27.363Z,8.90
2022-11-07T20:09:54.095Z,8.90
2022-11-07T20:12:21.037Z,8.90
2022-11-07T20:14:49.095Z,8.90
2022-11-07T20:17:15.862Z,8.90
2022-11-07T20:19:42.585Z,8.80
2022-11-07T20:22:09.316Z,8.80
2022-11-07T20:24:36.144Z,8.80
2022-11-07T20:27:03.288Z,8.80
2022-11-07T20:29:30.020Z,8.80
2022-11-07T20:31:58.187Z,8.80
2022-11-07T20:34:24.969Z,8.70
2022-11-07T20:36:53.493Z,8.70
2022-11-07T20:39:20.272Z,8.70
2022-11-07T20:41:47.166Z,8.70
2022-11-07T20:44:15.523Z,8.70
2022-11-07T20:46:44.504Z,8.70
2022-11-07T20:49:14.361Z,8.60
2022-11-07T20:51:42.010Z,8.60
2022-11-07T20:54:11.783Z,8.50
2022-11-07T20:56:38.548Z,8.60
2022-11-07T20:59:05.757Z,8.60
2022-11-07T21:01:33.740Z,8.60
2022-11-07T21:04:00.545Z,8.60
2022-11-07T21:06:28.625Z,8.60
2022-11-07T21:08:55.345Z,8.60
2022-11-07T21:11:22.290Z,8.50
2022-11-07T21:13:53.037Z,8.50
2022-11-07T21:16:21.085Z,8.50
2022-11-07T21:18:48.003Z,8.50
2022-11-07T21:21:16.815Z,8.50
2022-11-07T21:23:45.094Z,8.50
2022-11-07T21:26:16.037Z,8.40
2022-11-07T21:28:42.810Z,8.30
2022-11-07T21:31:11.338Z,8.40
2022-11-07T21:33:38.591Z,8.30
2022-11-07T21:36:08.780Z,8.30
2022-11-07T21:38:35.518Z,8.30
2022-11-07T21:41:05.613Z,8.30
2022-11-07T21:43:32.345Z,8.30
2022-11-07T21:46:06.429Z,8.30
2022-11-07T21:48:33.001Z,8.30
2022-11-07T21:51:03.683Z,8.30
2022-11-07T21:53:32.235Z,8.20
2022-11-07T21:56:02.237Z,8.20
2022-11-07T21:58:31.119Z,8.20
2022-11-07T22:01:01.894Z,8.20
2022-11-07T22:03:58.749Z,8.20
2022-11-07T22:06:16.175Z,8.10
2022-11-07T22:08:42.865Z,8.10
2022-11-07T22:11:09.591Z,8.10
2022-11-07T22:13:37.675Z,8.10
2022-11-07T22:16:06.934Z,8.10
2022-11-07T22:18:33.918Z,8.10
2022-11-07T22:21:01.607Z,8.10
2022-11-07T22:23:30.663Z,8.10
2022-11-07T22:26:02.359Z,8.10
2022-11-07T22:28:29.139Z,8.10
2022-11-07T22:30:57.505Z,8.00
2022-11-07T22:33:24.423Z,8.00
2022-11-07T22:35:51.358Z,8.00
2022-11-07T22:38:18.072Z,8.00
2022-11-07T22:40:44.906Z,7.90
2022-11-07T22:43:11.893Z,8.00
2022-11-07T22:45:38.705Z,8.00
2022-11-07T22:48:07.694Z,7.90
2022-11-07T22:50:34.936Z,8.00
2022-11-07T22:53:01.738Z,7.90
2022-11-07T22:55:28.653Z,8.00
2022-11-07T22:57:55.494Z,7.90
2022-11-07T23:00:22.440Z,7.90
2022-11-07T23:02:49.257Z,7.90
2022-11-07T23:05:17.901Z,7.80
2022-11-07T23:07:44.640Z,7.80
2022-11-07T23:10:11.364Z,7.80
2022-11-07T23:12:38.126Z,7.80
2022-11-07T23:15:06.129Z,7.80
2022-11-07T23:17:32.845Z,7.80
2022-11-07T23:19:59.564Z,7.80
2022-11-07T23:22:32.038Z,7.70
2022-11-07T23:24:59.138Z,7.70
2022-11-07T23:27:25.884Z,7.70
2022-11-07T23:29:52.594Z,7.70
2022-11-07T23:32:19.335Z,7.70
2022-11-07T23:34:46.155Z,7.70
2022-11-07T23:37:12.887Z,7.60
2022-11-07T23:39:41.264Z,7.60
2022-11-07T23:42:08.375Z,7.60
2022-11-07T23:44:35.107Z,7.60
2022-11-07T23:47:01.819Z,7.60
2022-11-07T23:49:28.565Z,7.60
2022-11-07T23:51:55.289Z,7.60
2022-11-07T23:54:21.992Z,7.60
2022-11-07T23:56:50.074Z,7.50
2022-11-07T23:59:16.816Z,7.50
